sensor_id;sensor_type;location;lat;lon;timestamp;P1;durP1;ratioP1;P2;durP2;ratioP2
39846;SDS011;25517;52.422;10.782;2023-04-24T00:00:12;4.50;;;2.50;;
39846;SDS011;25517;52.422;10.782;2023-04-24T00:02:39;4.20;;;2.20;;
39846;SDS011;25517;52.422;10.782;2023-04-24T00:05:05;2.78;;;1.98;;
39846;SDS011;25517;52.422;10.782;2023-04-24T00:07:31;3.20;;;2.45;;
39846;SDS011;25517;52.422;10.782;2023-04-24T00:09:57;3.10;;;2.13;;
39846;SDS011;25517;52.422;10.782;2023-04-24T00:12:23;3.35;;;2.40;;
39846;SDS011;25517;52.422;10.782;2023-04-24T00:14:49;2.28;;;2.08;;
39846;SDS011;25517;52.422;10.782;2023-04-24T00:17:15;4.95;;;2.63;;
39846;SDS011;25517;52.422;10.782;2023-04-24T00:19:40;4.40;;;2.03;;
39846;SDS011;25517;52.422;10.782;2023-04-24T00:22:06;7.05;;;2.38;;
39846;SDS011;25517;52.422;10.782;2023-04-24T00:24:32;2.35;;;2.05;;
39846;SDS011;25517;52.422;10.782;2023-04-24T00:26:57;3.65;;;2.08;;
39846;SDS011;25517;52.422;10.782;2023-04-24T00:29:23;2.25;;;2.00;;
39846;SDS011;25517;52.422;10.782;2023-04-24T00:31:49;2.60;;;1.90;;
39846;SDS011;25517;52.422;10.782;2023-04-24T00:34:14;3.20;;;1.80;;
39846;SDS011;25517;52.422;10.782;2023-04-24T00:36:40;1.77;;;1.60;;
39846;SDS011;25517;52.422;10.782;2023-04-24T00:39:05;2.20;;;1.98;;
39846;SDS011;25517;52.422;10.782;2023-04-24T00:41:33;3.92;;;1.92;;
39846;SDS011;25517;52.422;10.782;2023-04-24T00:43:59;2.95;;;2.05;;
39846;SDS011;25517;52.422;10.782;2023-04-24T00:46:24;2.70;;;2.25;;
39846;SDS011;25517;52.422;10.782;2023-04-24T00:48:50;9.48;;;2.30;;
39846;SDS011;25517;52.422;10.782;2023-04-24T00:51:16;3.25;;;2.10;;
39846;SDS011;25517;52.422;10.782;2023-04-24T00:53:42;3.28;;;2.13;;
39846;SDS011;25517;52.422;10.782;2023-04-24T00:56:07;2.22;;;1.90;;
39846;SDS011;25517;52.422;10.782;2023-04-24T00:58:33;2.60;;;1.95;;
39846;SDS011;25517;52.422;10.782;2023-04-24T01:00:58;2.53;;;2.25;;
39846;SDS011;25517;52.422;10.782;2023-04-24T01:03:26;3.05;;;2.10;;
39846;SDS011;25517;52.422;10.782;2023-04-24T01:05:55;2.90;;;1.75;;
39846;SDS011;25517;52.422;10.782;2023-04-24T01:08:23;2.47;;;1.90;;
39846;SDS011;25517;52.422;10.782;2023-04-24T01:10:49;2.10;;;1.90;;
39846;SDS011;25517;52.422;10.782;2023-04-24T01:13:17;2.92;;;2.03;;
39846;SDS011;25517;52.422;10.782;2023-04-24T01:15:44;1.90;;;1.80;;
39846;SDS011;25517;52.422;10.782;2023-04-24T01:18:10;3.83;;;1.73;;
39846;SDS011;25517;52.422;10.782;2023-04-24T01:20:36;2.00;;;1.80;;
39846;SDS011;25517;52.422;10.782;2023-04-24T01:23:04;4.80;;;1.85;;
39846;SDS011;25517;52.422;10.782;2023-04-24T01:25:34;3.72;;;1.60;;
39846;SDS011;25517;52.422;10.782;2023-04-24T01:28:00;2.17;;;1.70;;
39846;SDS011;25517;52.422;10.782;2023-04-24T01:30:26;3.78;;;1.60;;
39846;SDS011;25517;52.422;10.782;2023-04-24T01:32:52;2.45;;;1.88;;
39846;SDS011;25517;52.422;10.782;2023-04-24T01:35:18;1.42;;;1.33;;
39846;SDS011;25517;52.422;10.782;2023-04-24T01:37:44;1.80;;;1.70;;
39846;SDS011;25517;52.422;10.782;2023-04-24T01:40:10;1.40;;;1.30;;
39846;SDS011;25517;52.422;10.782;2023-04-24T01:42:36;1.30;;;1.20;;
39846;SDS011;25517;52.422;10.782;2023-04-24T01:45:03;1.67;;;1.27;;
39846;SDS011;25517;52.422;10.782;2023-04-24T01:47:30;1.73;;;1.50;;
39846;SDS011;25517;52.422;10.782;2023-04-24T01:49:57;1.70;;;1.45;;
39846;SDS011;25517;52.422;10.782;2023-04-24T01:52:23;3.13;;;1.48;;
39846;SDS011;25517;52.422;10.782;2023-04-24T01:54:49;4.60;;;1.42;;
39846;SDS011;25517;52.422;10.782;2023-04-24T01:57:15;4.43;;;1.50;;
39846;SDS011;25517;52.422;10.782;2023-04-24T01:59:41;1.73;;;1.30;;
39846;SDS011;25517;52.422;10.782;2023-04-24T02:02:07;2.45;;;1.35;;
39846;SDS011;25517;52.422;10.782;2023-04-24T02:04:32;2.63;;;1.40;;
39846;SDS011;25517;52.422;10.782;2023-04-24T02:06:58;3.75;;;1.45;;
39846;SDS011;25517;52.422;10.782;2023-04-24T02:09:23;1.90;;;1.45;;
39846;SDS011;25517;52.422;10.782;2023-04-24T02:11:49;4.32;;;1.58;;
39846;SDS011;25517;52.422;10.782;2023-04-24T02:14:15;1.88;;;1.38;;
39846;SDS011;25517;52.422;10.782;2023-04-24T02:16:41;2.75;;;1.33;;
39846;SDS011;25517;52.422;10.782;2023-04-24T02:19:07;2.08;;;1.45;;
39846;SDS011;25517;52.422;10.782;2023-04-24T02:21:32;3.17;;;1.77;;
39846;SDS011;25517;52.422;10.782;2023-04-24T02:23:58;1.38;;;1.20;;
39846;SDS011;25517;52.422;10.782;2023-04-24T02:26:24;1.50;;;1.40;;
39846;SDS011;25517;52.422;10.782;2023-04-24T02:28:49;2.45;;;1.70;;
39846;SDS011;25517;52.422;10.782;2023-04-24T02:31:15;3.60;;;1.58;;
39846;SDS011;25517;52.422;10.782;2023-04-24T02:33:41;5.75;;;1.58;;
39846;SDS011;25517;52.422;10.782;2023-04-24T02:36:06;2.13;;;1.23;;
39846;SDS011;25517;52.422;10.782;2023-04-24T02:38:32;1.92;;;1.70;;
39846;SDS011;25517;52.422;10.782;2023-04-24T02:40:57;2.70;;;1.30;;
39846;SDS011;25517;52.422;10.782;2023-04-24T02:43:23;3.50;;;1.40;;
39846;SDS011;25517;52.422;10.782;2023-04-24T02:45:48;3.38;;;1.75;;
39846;SDS011;25517;52.422;10.782;2023-04-24T02:48:14;2.88;;;1.58;;
39846;SDS011;25517;52.422;10.782;2023-04-24T02:50:40;3.85;;;1.70;;
39846;SDS011;25517;52.422;10.782;2023-04-24T02:53:05;6.72;;;1.63;;
39846;SDS011;25517;52.422;10.782;2023-04-24T02:55:31;4.20;;;1.50;;
39846;SDS011;25517;52.422;10.782;2023-04-24T02:57:57;1.92;;;1.52;;
39846;SDS011;25517;52.422;10.782;2023-04-24T03:00:22;6.68;;;1.33;;
39846;SDS011;25517;52.422;10.782;2023-04-24T03:02:48;6.47;;;1.48;;
39846;SDS011;25517;52.422;10.782;2023-04-24T03:05:14;3.00;;;1.15;;
39846;SDS011;25517;52.422;10.782;2023-04-24T03:07:40;3.95;;;1.48;;
39846;SDS011;25517;52.422;10.782;2023-04-24T03:10:06;4.50;;;1.70;;
39846;SDS011;25517;52.422;10.782;2023-04-24T03:12:32;2.50;;;1.42;;
39846;SDS011;25517;52.422;10.782;2023-04-24T03:14:58;3.95;;;1.60;;
39846;SDS011;25517;52.422;10.782;2023-04-24T03:17:23;2.63;;;1.77;;
39846;SDS011;25517;52.422;10.782;2023-04-24T03:19:49;2.25;;;1.70;;
39846;SDS011;25517;52.422;10.782;2023-04-24T03:22:15;6.60;;;1.88;;
39846;SDS011;25517;52.422;10.782;2023-04-24T03:24:40;2.20;;;1.92;;
39846;SDS011;25517;52.422;10.782;2023-04-24T03:27:06;1.60;;;1.50;;
39846;SDS011;25517;52.422;10.782;2023-04-24T03:29:31;4.32;;;1.73;;
39846;SDS011;25517;52.422;10.782;2023-04-24T03:31:57;2.00;;;1.75;;
39846;SDS011;25517;52.422;10.782;2023-04-24T03:34:22;4.93;;;2.10;;
39846;SDS011;25517;52.422;10.782;2023-04-24T03:36:48;1.75;;;1.42;;
39846;SDS011;25517;52.422;10.782;2023-04-24T03:39:13;2.33;;;1.90;;
39846;SDS011;25517;52.422;10.782;2023-04-24T03:41:39;8.05;;;1.92;;
39846;SDS011;25517;52.422;10.782;2023-04-24T03:44:05;3.45;;;1.52;;
39846;SDS011;25517;52.422;10.782;2023-04-24T03:46:30;2.13;;;1.60;;
39846;SDS011;25517;52.422;10.782;2023-04-24T03:48:56;3.28;;;1.67;;
39846;SDS011;25517;52.422;10.782;2023-04-24T03:51:21;3.92;;;1.70;;
39846;SDS011;25517;52.422;10.782;2023-04-24T03:53:47;1.65;;;1.35;;
39846;SDS011;25517;52.422;10.782;2023-04-24T03:56:13;2.08;;;1.77;;
39846;SDS011;25517;52.422;10.782;2023-04-24T03:58:39;1.48;;;1.20;;
39846;SDS011;25517;52.422;10.782;2023-04-24T04:01:05;2.30;;;1.80;;
39846;SDS011;25517;52.422;10.782;2023-04-24T04:03:30;3.70;;;2.20;;
39846;SDS011;25517;52.422;10.782;2023-04-24T04:05:56;2.25;;;1.58;;
39846;SDS011;25517;52.422;10.782;2023-04-24T04:08:21;4.05;;;2.30;;
39846;SDS011;25517;52.422;10.782;2023-04-24T04:10:47;3.90;;;1.40;;
39846;SDS011;25517;52.422;10.782;2023-04-24T04:13:12;6.32;;;1.50;;
39846;SDS011;25517;52.422;10.782;2023-04-24T04:15:38;1.77;;;1.35;;
39846;SDS011;25517;52.422;10.782;2023-04-24T04:18:04;1.45;;;1.08;;
39846;SDS011;25517;52.422;10.782;2023-04-24T04:20:30;1.92;;;1.40;;
39846;SDS011;25517;52.422;10.782;2023-04-24T04:22:55;3.55;;;1.30;;
39846;SDS011;25517;52.422;10.782;2023-04-24T04:25:21;1.95;;;1.60;;
39846;SDS011;25517;52.422;10.782;2023-04-24T04:27:48;1.92;;;1.45;;
39846;SDS011;25517;52.422;10.782;2023-04-24T04:30:14;3.90;;;1.65;;
39846;SDS011;25517;52.422;10.782;2023-04-24T04:32:40;2.95;;;1.42;;
39846;SDS011;25517;52.422;10.782;2023-04-24T04:35:05;4.13;;;1.35;;
39846;SDS011;25517;52.422;10.782;2023-04-24T04:37:32;2.03;;;1.23;;
39846;SDS011;25517;52.422;10.782;2023-04-24T04:40:01;2.05;;;1.52;;
39846;SDS011;25517;52.422;10.782;2023-04-24T04:42:36;4.50;;;1.40;;
39846;SDS011;25517;52.422;10.782;2023-04-24T04:45:05;2.78;;;1.42;;
39846;SDS011;25517;52.422;10.782;2023-04-24T04:47:34;2.05;;;1.42;;
39846;SDS011;25517;52.422;10.782;2023-04-24T04:50:00;1.75;;;1.17;;
39846;SDS011;25517;52.422;10.782;2023-04-24T04:52:25;1.30;;;1.20;;
39846;SDS011;25517;52.422;10.782;2023-04-24T04:54:51;4.88;;;1.30;;
39846;SDS011;25517;52.422;10.782;2023-04-24T04:57:17;2.88;;;1.63;;
39846;SDS011;25517;52.422;10.782;2023-04-24T04:59:42;5.88;;;1.30;;
39846;SDS011;25517;52.422;10.782;2023-04-24T05:02:08;2.28;;;1.27;;
39846;SDS011;25517;52.422;10.782;2023-04-24T05:04:34;1.55;;;1.25;;
39846;SDS011;25517;52.422;10.782;2023-04-24T05:06:59;2.85;;;1.63;;
39846;SDS011;25517;52.422;10.782;2023-04-24T05:09:25;2.85;;;1.77;;
39846;SDS011;25517;52.422;10.782;2023-04-24T05:11:52;2.75;;;1.30;;
39846;SDS011;25517;52.422;10.782;2023-04-24T05:14:18;2.78;;;1.23;;
39846;SDS011;25517;52.422;10.782;2023-04-24T05:16:44;5.53;;;2.40;;
39846;SDS011;25517;52.422;10.782;2023-04-24T05:19:10;6.13;;;2.95;;
39846;SDS011;25517;52.422;10.782;2023-04-24T05:21:36;4.15;;;1.67;;
39846;SDS011;25517;52.422;10.782;2023-04-24T05:24:02;2.13;;;1.30;;
39846;SDS011;25517;52.422;10.782;2023-04-24T05:26:28;2.13;;;1.23;;
39846;SDS011;25517;52.422;10.782;2023-04-24T05:28:53;2.80;;;1.10;;
39846;SDS011;25517;52.422;10.782;2023-04-24T05:31:19;1.83;;;1.30;;
39846;SDS011;25517;52.422;10.782;2023-04-24T05:33:44;2.30;;;1.33;;
39846;SDS011;25517;52.422;10.782;2023-04-24T05:36:10;2.00;;;1.20;;
39846;SDS011;25517;52.422;10.782;2023-04-24T05:38:35;1.55;;;1.05;;
39846;SDS011;25517;52.422;10.782;2023-04-24T05:41:01;4.47;;;1.40;;
39846;SDS011;25517;52.422;10.782;2023-04-24T05:43:26;4.80;;;1.40;;
39846;SDS011;25517;52.422;10.782;2023-04-24T05:45:52;4.82;;;1.38;;
39846;SDS011;25517;52.422;10.782;2023-04-24T05:48:18;3.75;;;1.02;;
39846;SDS011;25517;52.422;10.782;2023-04-24T05:50:44;1.35;;;1.00;;
39846;SDS011;25517;52.422;10.782;2023-04-24T05:53:09;1.27;;;1.08;;
39846;SDS011;25517;52.422;10.782;2023-04-24T05:55:35;3.67;;;1.15;;
39846;SDS011;25517;52.422;10.782;2023-04-24T05:58:01;2.20;;;1.10;;
39846;SDS011;25517;52.422;10.782;2023-04-24T06:00:27;5.28;;;1.33;;
39846;SDS011;25517;52.422;10.782;2023-04-24T06:02:53;1.73;;;1.05;;
39846;SDS011;25517;52.422;10.782;2023-04-24T06:05:19;2.60;;;1.38;;
39846;SDS011;25517;52.422;10.782;2023-04-24T06:07:44;1.05;;;0.90;;
39846;SDS011;25517;52.422;10.782;2023-04-24T06:10:10;3.15;;;1.15;;
39846;SDS011;25517;52.422;10.782;2023-04-24T06:12:36;2.55;;;0.90;;
39846;SDS011;25517;52.422;10.782;2023-04-24T06:15:02;4.50;;;1.30;;
39846;SDS011;25517;52.422;10.782;2023-04-24T06:17:28;4.03;;;1.27;;
39846;SDS011;25517;52.422;10.782;2023-04-24T06:19:54;1.35;;;1.10;;
39846;SDS011;25517;52.422;10.782;2023-04-24T06:22:19;1.52;;;0.90;;
39846;SDS011;25517;52.422;10.782;2023-04-24T06:24:45;3.22;;;1.23;;
39846;SDS011;25517;52.422;10.782;2023-04-24T06:27:12;1.23;;;1.10;;
39846;SDS011;25517;52.422;10.782;2023-04-24T06:29:37;1.13;;;1.02;;
39846;SDS011;25517;52.422;10.782;2023-04-24T06:32:03;3.10;;;1.10;;
39846;SDS011;25517;52.422;10.782;2023-04-24T06:34:28;1.70;;;1.23;;
39846;SDS011;25517;52.422;10.782;2023-04-24T06:36:55;1.33;;;0.98;;
39846;SDS011;25517;52.422;10.782;2023-04-24T06:39:21;3.17;;;0.93;;
39846;SDS011;25517;52.422;10.782;2023-04-24T06:41:47;1.05;;;0.73;;
39846;SDS011;25517;52.422;10.782;2023-04-24T06:44:12;1.23;;;1.00;;
39846;SDS011;25517;52.422;10.782;2023-04-24T06:46:39;15.43;;;10.50;;
39846;SDS011;25517;52.422;10.782;2023-04-24T06:49:05;13.70;;;8.68;;
39846;SDS011;25517;52.422;10.782;2023-04-24T06:51:31;3.28;;;1.40;;
39846;SDS011;25517;52.422;10.782;2023-04-24T06:53:57;0.90;;;0.90;;
39846;SDS011;25517;52.422;10.782;2023-04-24T06:56:23;2.80;;;1.13;;
39846;SDS011;25517;52.422;10.782;2023-04-24T06:58:50;3.10;;;1.13;;
39846;SDS011;25517;52.422;10.782;2023-04-24T07:01:16;6.90;;;2.45;;
39846;SDS011;25517;52.422;10.782;2023-04-24T07:03:41;3.28;;;1.30;;
39846;SDS011;25517;52.422;10.782;2023-04-24T07:06:07;2.90;;;1.17;;
39846;SDS011;25517;52.422;10.782;2023-04-24T07:08:34;3.47;;;1.50;;
39846;SDS011;25517;52.422;10.782;2023-04-24T07:11:00;1.55;;;1.30;;
39846;SDS011;25517;52.422;10.782;2023-04-24T07:13:26;1.13;;;1.02;;
39846;SDS011;25517;52.422;10.782;2023-04-24T07:15:53;4.03;;;1.40;;
39846;SDS011;25517;52.422;10.782;2023-04-24T07:18:20;1.42;;;1.10;;
39846;SDS011;25517;52.422;10.782;2023-04-24T07:20:46;1.80;;;1.33;;
39846;SDS011;25517;52.422;10.782;2023-04-24T07:23:12;3.08;;;1.42;;
39846;SDS011;25517;52.422;10.782;2023-04-24T07:25:37;1.98;;;1.20;;
39846;SDS011;25517;52.422;10.782;2023-04-24T07:28:03;1.80;;;1.08;;
39846;SDS011;25517;52.422;10.782;2023-04-24T07:30:29;2.20;;;1.48;;
39846;SDS011;25517;52.422;10.782;2023-04-24T07:32:55;3.10;;;1.33;;
39846;SDS011;25517;52.422;10.782;2023-04-24T07:35:21;2.83;;;1.45;;
39846;SDS011;25517;52.422;10.782;2023-04-24T07:37:47;3.13;;;1.17;;
39846;SDS011;25517;52.422;10.782;2023-04-24T07:40:13;2.75;;;1.55;;
39846;SDS011;25517;52.422;10.782;2023-04-24T07:42:38;3.38;;;1.85;;
39846;SDS011;25517;52.422;10.782;2023-04-24T07:45:04;4.40;;;1.48;;
39846;SDS011;25517;52.422;10.782;2023-04-24T07:47:31;2.08;;;1.88;;
39846;SDS011;25517;52.422;10.782;2023-04-24T07:49:56;6.00;;;1.77;;
39846;SDS011;25517;52.422;10.782;2023-04-24T07:52:23;2.72;;;1.45;;
39846;SDS011;25517;52.422;10.782;2023-04-24T07:54:48;2.58;;;1.38;;
39846;SDS011;25517;52.422;10.782;2023-04-24T07:57:14;2.83;;;1.42;;
39846;SDS011;25517;52.422;10.782;2023-04-24T07:59:40;5.55;;;1.83;;
39846;SDS011;25517;52.422;10.782;2023-04-24T08:02:06;5.95;;;1.80;;
39846;SDS011;25517;52.422;10.782;2023-04-24T08:04:33;5.18;;;1.20;;
39846;SDS011;25517;52.422;10.782;2023-04-24T08:06:59;2.45;;;1.20;;
39846;SDS011;25517;52.422;10.782;2023-04-24T08:09:24;4.32;;;1.20;;
39846;SDS011;25517;52.422;10.782;2023-04-24T08:11:50;2.53;;;1.02;;
39846;SDS011;25517;52.422;10.782;2023-04-24T08:14:15;1.55;;;1.10;;
39846;SDS011;25517;52.422;10.782;2023-04-24T08:16:41;1.33;;;1.20;;
39846;SDS011;25517;52.422;10.782;2023-04-24T08:19:07;2.30;;;1.77;;
39846;SDS011;25517;52.422;10.782;2023-04-24T08:21:32;2.50;;;1.73;;
39846;SDS011;25517;52.422;10.782;2023-04-24T08:23:58;6.07;;;1.70;;
39846;SDS011;25517;52.422;10.782;2023-04-24T08:26:23;3.08;;;1.75;;
39846;SDS011;25517;52.422;10.782;2023-04-24T08:28:49;2.75;;;2.00;;
39846;SDS011;25517;52.422;10.782;2023-04-24T08:31:15;2.22;;;1.75;;
39846;SDS011;25517;52.422;10.782;2023-04-24T08:33:40;2.22;;;2.00;;
39846;SDS011;25517;52.422;10.782;2023-04-24T08:36:06;4.80;;;2.53;;
39846;SDS011;25517;52.422;10.782;2023-04-24T08:38:33;2.83;;;2.00;;
39846;SDS011;25517;52.422;10.782;2023-04-24T08:40:59;4.32;;;2.30;;
39846;SDS011;25517;52.422;10.782;2023-04-24T08:43:25;3.85;;;2.40;;
39846;SDS011;25517;52.422;10.782;2023-04-24T08:45:51;2.67;;;2.17;;
39846;SDS011;25517;52.422;10.782;2023-04-24T08:48:18;3.70;;;2.50;;
39846;SDS011;25517;52.422;10.782;2023-04-24T08:50:44;4.65;;;2.40;;
39846;SDS011;25517;52.422;10.782;2023-04-24T08:53:10;4.28;;;3.03;;
39846;SDS011;25517;52.422;10.782;2023-04-24T08:55:37;4.03;;;2.47;;
39846;SDS011;25517;52.422;10.782;2023-04-24T08:58:02;2.78;;;2.13;;
39846;SDS011;25517;52.422;10.782;2023-04-24T09:00:29;4.75;;;2.53;;
39846;SDS011;25517;52.422;10.782;2023-04-24T09:02:55;3.30;;;2.45;;
39846;SDS011;25517;52.422;10.782;2023-04-24T09:05:22;6.13;;;2.83;;
39846;SDS011;25517;52.422;10.782;2023-04-24T09:07:55;6.32;;;2.40;;
39846;SDS011;25517;52.422;10.782;2023-04-24T09:10:22;3.13;;;2.42;;
39846;SDS011;25517;52.422;10.782;2023-04-24T09:12:50;6.60;;;2.00;;
39846;SDS011;25517;52.422;10.782;2023-04-24T09:15:16;3.90;;;2.08;;
39846;SDS011;25517;52.422;10.782;2023-04-24T09:17:43;3.05;;;2.53;;
39846;SDS011;25517;52.422;10.782;2023-04-24T09:20:09;6.43;;;2.83;;
39846;SDS011;25517;52.422;10.782;2023-04-24T09:22:36;2.78;;;2.42;;
39846;SDS011;25517;52.422;10.782;2023-04-24T09:25:06;3.00;;;2.70;;
39846;SDS011;25517;52.422;10.782;2023-04-24T09:27:33;2.85;;;2.20;;
39846;SDS011;25517;52.422;10.782;2023-04-24T09:29:59;4.07;;;3.15;;
39846;SDS011;25517;52.422;10.782;2023-04-24T09:32:25;3.22;;;2.90;;
39846;SDS011;25517;52.422;10.782;2023-04-24T09:37:36;5.20;;;3.67;;
39846;SDS011;25517;52.422;10.782;2023-04-24T09:42:36;4.90;;;4.03;;
39846;SDS011;25517;52.422;10.782;2023-04-24T09:45:02;5.72;;;3.55;;
39846;SDS011;25517;52.422;10.782;2023-04-24T09:47:28;5.75;;;3.95;;
39846;SDS011;25517;52.422;10.782;2023-04-24T09:50:10;3.45;;;3.15;;
39846;SDS011;25517;52.422;10.782;2023-04-24T09:52:41;6.57;;;4.70;;
39846;SDS011;25517;52.422;10.782;2023-04-24T09:55:11;4.60;;;3.67;;
39846;SDS011;25517;52.422;10.782;2023-04-24T09:57:55;4.57;;;3.15;;
39846;SDS011;25517;52.422;10.782;2023-04-24T10:00:25;4.28;;;3.13;;
39846;SDS011;25517;52.422;10.782;2023-04-24T10:05:29;4.18;;;3.45;;
39846;SDS011;25517;52.422;10.782;2023-04-24T10:08:01;3.88;;;2.88;;
39846;SDS011;25517;52.422;10.782;2023-04-24T10:10:28;4.30;;;3.50;;
39846;SDS011;25517;52.422;10.782;2023-04-24T10:12:54;3.83;;;3.45;;
39846;SDS011;25517;52.422;10.782;2023-04-24T10:15:20;4.05;;;3.30;;
39846;SDS011;25517;52.422;10.782;2023-04-24T10:17:47;5.22;;;3.13;;
39846;SDS011;25517;52.422;10.782;2023-04-24T10:20:17;5.03;;;3.95;;
39846;SDS011;25517;52.422;10.782;2023-04-24T10:22:54;3.80;;;3.30;;
39846;SDS011;25517;52.422;10.782;2023-04-24T10:25:21;7.63;;;3.80;;
39846;SDS011;25517;52.422;10.782;2023-04-24T10:27:49;4.70;;;3.10;;
39846;SDS011;25517;52.422;10.782;2023-04-24T10:30:16;3.42;;;2.60;;
39846;SDS011;25517;52.422;10.782;2023-04-24T10:32:42;5.30;;;3.20;;
39846;SDS011;25517;52.422;10.782;2023-04-24T10:35:09;3.35;;;2.70;;
39846;SDS011;25517;52.422;10.782;2023-04-24T10:37:37;2.40;;;2.20;;
39846;SDS011;25517;52.422;10.782;2023-04-24T10:40:05;2.53;;;2.33;;
39846;SDS011;25517;52.422;10.782;2023-04-24T10:42:32;3.63;;;2.47;;
39846;SDS011;25517;52.422;10.782;2023-04-24T10:44:58;2.65;;;2.17;;
39846;SDS011;25517;52.422;10.782;2023-04-24T10:47:26;2.15;;;1.95;;
39846;SDS011;25517;52.422;10.782;2023-04-24T10:49:52;5.18;;;4.47;;
39846;SDS011;25517;52.422;10.782;2023-04-24T10:52:18;4.35;;;3.95;;
39846;SDS011;25517;52.422;10.782;2023-04-24T10:54:45;4.63;;;3.47;;
39846;SDS011;25517;52.422;10.782;2023-04-24T10:59:44;6.05;;;2.47;;
39846;SDS011;25517;52.422;10.782;2023-04-24T11:02:10;2.60;;;2.25;;
39846;SDS011;25517;52.422;10.782;2023-04-24T11:04:38;8.38;;;2.67;;
39846;SDS011;25517;52.422;10.782;2023-04-24T11:07:04;4.28;;;2.58;;
39846;SDS011;25517;52.422;10.782;2023-04-24T11:09:30;2.65;;;2.35;;
39846;SDS011;25517;52.422;10.782;2023-04-24T11:12:04;6.30;;;2.50;;
39846;SDS011;25517;52.422;10.782;2023-04-24T11:17:30;3.20;;;2.20;;
39846;SDS011;25517;52.422;10.782;2023-04-24T11:20:02;3.05;;;2.60;;
39846;SDS011;25517;52.422;10.782;2023-04-24T11:22:29;3.00;;;2.58;;
39846;SDS011;25517;52.422;10.782;2023-04-24T11:24:59;4.65;;;2.58;;
39846;SDS011;25517;52.422;10.782;2023-04-24T11:27:38;2.50;;;2.30;;
39846;SDS011;25517;52.422;10.782;2023-04-24T11:30:05;4.13;;;2.90;;
39846;SDS011;25517;52.422;10.782;2023-04-24T11:32:39;4.10;;;2.70;;
39846;SDS011;25517;52.422;10.782;2023-04-24T11:40:02;5.90;;;2.30;;
39846;SDS011;25517;52.422;10.782;2023-04-24T11:42:33;3.47;;;2.00;;
39846;SDS011;25517;52.422;10.782;2023-04-24T11:45:00;2.58;;;1.77;;
39846;SDS011;25517;52.422;10.782;2023-04-24T11:47:30;4.28;;;1.95;;
39846;SDS011;25517;52.422;10.782;2023-04-24T11:49:58;3.17;;;2.05;;
39846;SDS011;25517;52.422;10.782;2023-04-24T11:52:23;7.10;;;1.67;;
39846;SDS011;25517;52.422;10.782;2023-04-24T11:54:49;5.25;;;2.28;;
39846;SDS011;25517;52.422;10.782;2023-04-24T11:57:16;3.13;;;2.50;;
39846;SDS011;25517;52.422;10.782;2023-04-24T11:59:44;4.75;;;2.25;;
39846;SDS011;25517;52.422;10.782;2023-04-24T12:02:19;4.65;;;1.90;;
39846;SDS011;25517;52.422;10.782;2023-04-24T12:04:49;3.05;;;1.85;;
39846;SDS011;25517;52.422;10.782;2023-04-24T12:07:14;3.13;;;1.92;;
39846;SDS011;25517;52.422;10.782;2023-04-24T12:09:44;3.45;;;1.83;;
39846;SDS011;25517;52.422;10.782;2023-04-24T12:12:14;1.60;;;1.42;;
39846;SDS011;25517;52.422;10.782;2023-04-24T12:14:48;3.38;;;1.60;;
39846;SDS011;25517;52.422;10.782;2023-04-24T12:17:23;1.70;;;1.60;;
39846;SDS011;25517;52.422;10.782;2023-04-24T12:20:06;3.20;;;1.88;;
39846;SDS011;25517;52.422;10.782;2023-04-24T12:22:51;2.05;;;1.60;;
39846;SDS011;25517;52.422;10.782;2023-04-24T12:25:19;3.17;;;1.65;;
39846;SDS011;25517;52.422;10.782;2023-04-24T12:27:51;3.15;;;1.48;;
39846;SDS011;25517;52.422;10.782;2023-04-24T12:30:47;2.05;;;1.52;;
39846;SDS011;25517;52.422;10.782;2023-04-24T12:33:17;1.60;;;1.30;;
39846;SDS011;25517;52.422;10.782;2023-04-24T12:35:43;9.07;;;6.50;;
39846;SDS011;25517;52.422;10.782;2023-04-24T12:38:10;9.95;;;6.60;;
39846;SDS011;25517;52.422;10.782;2023-04-24T12:40:38;1.88;;;1.63;;
39846;SDS011;25517;52.422;10.782;2023-04-24T12:43:13;1.52;;;1.33;;
39846;SDS011;25517;52.422;10.782;2023-04-24T12:45:39;2.97;;;1.40;;
39846;SDS011;25517;52.422;10.782;2023-04-24T12:48:04;1.67;;;1.20;;
39846;SDS011;25517;52.422;10.782;2023-04-24T12:50:30;3.10;;;1.27;;
39846;SDS011;25517;52.422;10.782;2023-04-24T12:52:55;3.28;;;1.88;;
39846;SDS011;25517;52.422;10.782;2023-04-24T12:55:21;1.60;;;1.50;;
39846;SDS011;25517;52.422;10.782;2023-04-24T12:57:47;6.35;;;1.92;;
39846;SDS011;25517;52.422;10.782;2023-04-24T13:00:12;2.05;;;1.83;;
39846;SDS011;25517;52.422;10.782;2023-04-24T13:02:38;1.60;;;1.50;;
39846;SDS011;25517;52.422;10.782;2023-04-24T13:05:04;4.63;;;1.98;;
39846;SDS011;25517;52.422;10.782;2023-04-24T13:07:30;2.47;;;1.55;;
39846;SDS011;25517;52.422;10.782;2023-04-24T13:09:56;2.05;;;1.40;;
39846;SDS011;25517;52.422;10.782;2023-04-24T13:12:22;2.78;;;1.60;;
39846;SDS011;25517;52.422;10.782;2023-04-24T13:14:51;1.45;;;1.35;;
39846;SDS011;25517;52.422;10.782;2023-04-24T13:17:17;2.15;;;1.40;;
39846;SDS011;25517;52.422;10.782;2023-04-24T13:19:43;1.63;;;1.52;;
39846;SDS011;25517;52.422;10.782;2023-04-24T13:22:09;2.42;;;1.63;;
39846;SDS011;25517;52.422;10.782;2023-04-24T13:24:36;1.52;;;1.40;;
39846;SDS011;25517;52.422;10.782;2023-04-24T13:27:02;2.58;;;1.77;;
39846;SDS011;25517;52.422;10.782;2023-04-24T13:29:28;2.45;;;2.08;;
39846;SDS011;25517;52.422;10.782;2023-04-24T13:31:55;1.92;;;1.38;;
39846;SDS011;25517;52.422;10.782;2023-04-24T13:34:21;1.00;;;0.82;;
39846;SDS011;25517;52.422;10.782;2023-04-24T13:36:49;1.40;;;0.75;;
39846;SDS011;25517;52.422;10.782;2023-04-24T13:39:16;0.93;;;0.65;;
39846;SDS011;25517;52.422;10.782;2023-04-24T13:41:41;0.70;;;0.70;;
39846;SDS011;25517;52.422;10.782;2023-04-24T13:44:07;0.90;;;0.90;;
39846;SDS011;25517;52.422;10.782;2023-04-24T13:46:33;2.35;;;1.10;;
39846;SDS011;25517;52.422;10.782;2023-04-24T13:48:59;1.80;;;1.20;;
39846;SDS011;25517;52.422;10.782;2023-04-24T13:51:25;3.53;;;1.33;;
39846;SDS011;25517;52.422;10.782;2023-04-24T13:53:54;1.40;;;1.30;;
39846;SDS011;25517;52.422;10.782;2023-04-24T13:56:20;3.03;;;1.40;;
39846;SDS011;25517;52.422;10.782;2023-04-24T13:58:47;2.70;;;1.90;;
39846;SDS011;25517;52.422;10.782;2023-04-24T14:01:13;1.23;;;1.23;;
39846;SDS011;25517;52.422;10.782;2023-04-24T14:03:39;3.22;;;1.30;;
39846;SDS011;25517;52.422;10.782;2023-04-24T14:06:06;1.77;;;1.25;;
39846;SDS011;25517;52.422;10.782;2023-04-24T14:08:31;1.10;;;1.10;;
39846;SDS011;25517;52.422;10.782;2023-04-24T14:10:57;1.23;;;1.13;;
39846;SDS011;25517;52.422;10.782;2023-04-24T14:13:22;2.85;;;1.25;;
39846;SDS011;25517;52.422;10.782;2023-04-24T14:15:48;2.25;;;1.25;;
39846;SDS011;25517;52.422;10.782;2023-04-24T14:18:14;2.35;;;1.60;;
39846;SDS011;25517;52.422;10.782;2023-04-24T14:20:39;2.67;;;1.48;;
39846;SDS011;25517;52.422;10.782;2023-04-24T14:23:05;2.53;;;2.33;;
39846;SDS011;25517;52.422;10.782;2023-04-24T14:25:31;2.65;;;2.13;;
39846;SDS011;25517;52.422;10.782;2023-04-24T14:27:56;2.17;;;1.98;;
39846;SDS011;25517;52.422;10.782;2023-04-24T14:30:22;2.10;;;1.90;;
39846;SDS011;25517;52.422;10.782;2023-04-24T14:32:48;3.50;;;2.15;;
39846;SDS011;25517;52.422;10.782;2023-04-24T14:35:13;1.85;;;1.70;;
39846;SDS011;25517;52.422;10.782;2023-04-24T14:37:39;5.35;;;2.00;;
39846;SDS011;25517;52.422;10.782;2023-04-24T14:40:06;1.40;;;1.30;;
39846;SDS011;25517;52.422;10.782;2023-04-24T14:42:33;1.70;;;1.33;;
39846;SDS011;25517;52.422;10.782;2023-04-24T14:45:00;1.90;;;1.33;;
39846;SDS011;25517;52.422;10.782;2023-04-24T14:47:25;1.67;;;1.42;;